createdAt,value
2022-08-25T00:02:35.461Z,72.20
2022-08-25T00:07:39.707Z,73.01
2022-08-25T00:12:44.572Z,72.70
2022-08-25T00:17:48.272Z,72.25
2022-08-25T00:22:51.724Z,71.86
2022-08-25T00:27:57.278Z,71.80
2022-08-25T00:33:01.354Z,71.93
2022-08-25T00:38:05.462Z,72.10
2022-08-25T00:43:10.928Z,73.16
2022-08-25T00:48:14.702Z,74.26
2022-08-25T00:53:19.050Z,74.24
2022-08-25T00:58:27.677Z,74.12
2022-08-25T01:03:35.574Z,73.98
2022-08-25T01:08:40.032Z,73.08
2022-08-25T01:13:54.335Z,72.57
2022-08-25T01:19:00.674Z,72.62
2022-08-25T01:24:06.220Z,72.37
2022-08-25T01:29:25.376Z,71.88
2022-08-25T01:34:31.541Z,71.62
2022-08-25T01:39:37.919Z,70.80
2022-08-25T01:44:43.555Z,70.83
2022-08-25T01:49:47.738Z,70.42
2022-08-25T01:54:53.453Z,70.00
2022-08-25T01:59:56.933Z,69.84
2022-08-25T02:05:00.761Z,69.37
2022-08-25T02:10:07.740Z,69.08
2022-08-25T02:15:12.104Z,69.66
2022-08-25T02:20:15.610Z,69.65
2022-08-25T02:25:21.380Z,69.87
2022-08-25T02:30:24.878Z,69.92
2022-08-25T02:35:29.841Z,69.97
2022-08-25T02:40:35.097Z,70.12
2022-08-25T02:45:38.645Z,70.48
2022-08-25T02:50:42.139Z,70.38
2022-08-25T02:55:47.574Z,70.80
2022-08-25T03:00:51.472Z,70.26
2022-08-25T03:05:56.176Z,70.33
2022-08-25T03:11:01.028Z,70.77
2022-08-25T03:16:11.430Z,70.35
2022-08-25T03:21:16.326Z,70.64
2022-08-25T03:26:40.162Z,70.77
2022-08-25T03:31:44.960Z,70.75
2022-08-25T03:36:50.485Z,70.63
2022-08-25T03:41:55.450Z,70.45
2022-08-25T03:46:58.899Z,70.80
2022-08-25T03:52:02.431Z,70.77
2022-08-25T03:57:07.380Z,71.06
2022-08-25T04:02:10.931Z,71.03
2022-08-25T04:07:14.457Z,71.10
2022-08-25T04:12:19.283Z,71.98
2022-08-25T04:17:23.414Z,72.23
2022-08-25T04:22:27.127Z,72.40
2022-08-25T04:27:35.335Z,72.30
2022-08-25T04:32:38.930Z,72.79
2022-08-25T04:37:42.543Z,74.35
2022-08-25T04:42:48.246Z,75.21
2022-08-25T04:47:54.830Z,74.99
2022-08-25T04:52:58.597Z,75.70
2022-08-25T04:58:03.592Z,75.00
2022-08-25T05:03:07.786Z,75.63
2022-08-25T05:08:11.382Z,76.10
2022-08-25T05:13:16.270Z,76.46
2022-08-25T05:18:21.919Z,76.46
2022-08-25T05:23:26.249Z,77.02
2022-08-25T05:28:31.801Z,76.43
2022-08-25T05:33:35.689Z,77.01
2022-08-25T05:38:40.398Z,76.66
2022-08-25T05:43:48.181Z,75.08
2022-08-25T05:48:52.447Z,75.78
2022-08-25T05:53:55.939Z,75.10
2022-08-25T05:59:00.813Z,75.42
2022-08-25T06:04:05.235Z,75.15
2022-08-25T06:09:10.282Z,74.65
2022-08-25T06:14:16.484Z,74.27
2022-08-25T06:19:21.336Z,74.17
2022-08-25T06:24:26.299Z,73.22
2022-08-25T06:29:31.477Z,72.46
2022-08-25T06:34:35.214Z,70.51
2022-08-25T06:39:38.733Z,70.42
2022-08-25T06:44:44.096Z,68.77
2022-08-25T06:49:48.391Z,67.26
2022-08-25T06:54:53.252Z,66.73
2022-08-25T06:59:58.141Z,66.16
2022-08-25T07:05:01.698Z,65.18
2022-08-25T07:10:07.762Z,64.85
2022-08-25T07:15:21.006Z,64.32
2022-08-25T07:25:32.940Z,64.15
2022-08-25T07:30:37.835Z,62.47
2022-08-25T07:35:43.782Z,62.00
2022-08-25T07:40:54.617Z,61.46
2022-08-25T07:46:01.940Z,61.41
2022-08-25T07:51:10.480Z,61.00
2022-08-25T07:56:16.701Z,59.15
2022-08-25T08:01:23.711Z,60.67
2022-08-25T08:06:27.440Z,59.97
2022-08-25T08:11:33.219Z,58.40
2022-08-25T08:16:38.940Z,58.29
2022-08-25T08:21:43.277Z,57.37
2022-08-25T08:26:58.581Z,56.77
2022-08-25T08:32:05.646Z,55.62
2022-08-25T08:37:10.481Z,55.38
2022-08-25T08:42:39.808Z,55.41
2022-08-25T08:47:56.158Z,54.77
2022-08-25T08:53:08.164Z,55.28
2022-08-25T08:58:17.090Z,54.48
2022-08-25T09:03:34.763Z,55.37
2022-08-25T09:08:39.829Z,54.90
2022-08-25T09:14:06.471Z,55.29
2022-08-25T09:19:32.841Z,53.97
2022-08-25T09:24:50.992Z,54.66
2022-08-25T09:30:10.105Z,54.67
2022-08-25T09:35:19.739Z,54.10
2022-08-25T09:40:24.761Z,52.82
2022-08-25T09:45:42.492Z,52.89
2022-08-25T09:50:47.624Z,53.73
2022-08-25T09:56:00.286Z,52.79
2022-08-25T10:01:14.791Z,50.52
2022-08-25T10:06:19.858Z,52.31
2022-08-25T10:11:37.997Z,51.36
2022-08-25T10:16:42.040Z,51.88
2022-08-25T10:22:07.185Z,49.13
2022-08-25T10:27:21.803Z,49.78
2022-08-25T10:32:32.336Z,47.89
2022-08-25T10:37:45.217Z,48.19
2022-08-25T10:43:07.193Z,44.39
2022-08-25T10:48:45.201Z,45.47
2022-08-25T10:53:57.153Z,44.35
2022-08-25T10:59:19.165Z,45.65
2022-08-25T11:04:27.413Z,44.03
2022-08-25T11:09:36.526Z,44.35
2022-08-25T11:14:47.170Z,44.24
2022-08-25T11:19:53.306Z,45.77
2022-08-25T11:25:13.160Z,44.84
2022-08-25T11:30:19.561Z,45.17
2022-08-25T11:35:30.600Z,44.81
2022-08-25T11:40:51.962Z,44.95
2022-08-25T11:46:20.872Z,43.68
2022-08-25T11:51:36.484Z,45.56
2022-08-25T11:56:42.210Z,46.32
2022-08-25T12:02:10.106Z,47.19
2022-08-25T12:07:28.952Z,46.24
2022-08-25T12:12:38.553Z,48.50
2022-08-25T12:17:42.976Z,47.83
2022-08-25T12:22:57.535Z,48.86
2022-08-25T12:28:10.521Z,47.34
2022-08-25T12:33:24.637Z,48.16
2022-08-25T12:38:35.051Z,51.60
2022-08-25T12:43:45.627Z,52.30
2022-08-25T12:48:57.922Z,52.14
2022-08-25T12:54:15.911Z,53.96
2022-08-25T12:59:25.436Z,55.97
2022-08-25T13:04:57.445Z,55.58
2022-08-25T13:10:33.233Z,52.90
2022-08-25T13:15:44.551Z,51.92
2022-08-25T13:20:54.180Z,53.47
2022-08-25T13:25:58.815Z,53.92
2022-08-25T13:31:15.440Z,53.67
2022-08-25T13:36:36.676Z,53.85
2022-08-25T13:41:45.979Z,52.87
2022-08-25T13:47:07.018Z,53.38
2022-08-25T13:52:19.797Z,53.01
2022-08-25T13:57:32.379Z,51.71
2022-08-25T14:02:49.929Z,52.92
2022-08-25T14:08:15.604Z,51.71
2022-08-25T14:13:33.161Z,51.29
2022-08-25T14:18:38.357Z,51.09
2022-08-25T14:23:43.461Z,52.96
2022-08-25T14:28:47.689Z,51.93
2022-08-25T14:33:57.016Z,51.88
2022-08-25T14:39:05.801Z,53.04
2022-08-25T14:44:12.643Z,53.57
2022-08-25T14:49:24.953Z,54.50
2022-08-25T14:54:29.199Z,55.12
2022-08-25T14:59:32.979Z,56.26
2022-08-25T15:04:38.939Z,56.21
2022-08-25T15:09:46.061Z,56.06
2022-08-25T15:14:50.243Z,55.90
2022-08-25T15:19:55.245Z,56.05
2022-08-25T15:24:58.712Z,56.67
2022-08-25T15:30:07.208Z,57.52
2022-08-25T15:35:12.514Z,58.43
2022-08-25T15:40:19.490Z,56.72
2022-08-25T15:45:23.205Z,56.59
2022-08-25T15:50:29.479Z,57.57
2022-08-25T15:55:33.257Z,58.01
2022-08-25T16:00:37.841Z,56.71
2022-08-25T16:05:48.176Z,57.24
2022-08-25T16:10:52.288Z,57.44
2022-08-25T16:15:56.501Z,58.51
2022-08-25T16:21:01.441Z,59.54
2022-08-25T16:26:06.820Z,59.46
2022-08-25T16:31:11.339Z,57.98
2022-08-25T16:36:19.223Z,57.57
2022-08-25T16:41:24.975Z,56.77
2022-08-25T16:46:28.723Z,56.86
2022-08-25T16:51:34.347Z,56.06
2022-08-25T16:56:42.288Z,55.45
2022-08-25T17:01:46.595Z,55.39
2022-08-25T17:06:52.130Z,55.46
2022-08-25T17:11:57.381Z,55.12
2022-08-25T17:17:00.894Z,54.70
2022-08-25T17:22:08.333Z,54.56
2022-08-25T17:27:14.233Z,54.71
2022-08-25T17:32:20.405Z,55.18
2022-08-25T17:37:25.402Z,56.12
2022-08-25T17:42:30.399Z,56.54
2022-08-25T17:47:34.814Z,56.84
2022-08-25T17:52:39.747Z,56.71
2022-08-25T17:57:43.679Z,57.27
2022-08-25T18:02:47.433Z,58.00
2022-08-25T18:07:52.491Z,58.33
2022-08-25T18:12:57.821Z,58.54
2022-08-25T18:18:01.909Z,59.00
2022-08-25T18:23:10.031Z,59.17
2022-08-25T18:28:13.532Z,59.62
2022-08-25T18:33:19.078Z,59.73
2022-08-25T18:38:41.587Z,59.85
2022-08-25T18:43:46.695Z,59.90
2022-08-25T18:48:52.882Z,60.45
2022-08-25T18:53:59.337Z,60.76
2022-08-25T18:59:05.737Z,60.25
2022-08-25T19:04:10.098Z,60.53
2022-08-25T19:09:15.270Z,60.71
2022-08-25T19:14:19.982Z,61.45
2022-08-25T19:19:23.785Z,61.22
2022-08-25T19:24:29.984Z,61.08
2022-08-25T19:29:33.798Z,61.67
2022-08-25T19:34:42.756Z,62.02
2022-08-25T19:39:52.629Z,62.25
2022-08-25T19:44:56.891Z,62.66
2022-08-25T19:50:00.429Z,62.60
2022-08-25T19:55:05.900Z,63.08
2022-08-25T20:00:11.953Z,62.96
2022-08-25T20:05:17.093Z,62.33
2022-08-25T20:10:31.737Z,62.62
2022-08-25T20:15:37.200Z,63.09
2022-08-25T20:20:42.910Z,63.48
2022-08-25T20:25:48.242Z,63.21
2022-08-25T20:30:53.731Z,64.53
2022-08-25T20:35:57.213Z,63.89
2022-08-25T20:41:03.456Z,63.97
2022-08-25T20:46:08.240Z,64.63
2022-08-25T20:51:13.127Z,65.13
2022-08-25T20:56:20.390Z,65.50
2022-08-25T21:01:37.629Z,65.67
2022-08-25T21:06:41.930Z,65.23
2022-08-25T21:11:47.754Z,65.69
2022-08-25T21:16:51.721Z,65.46
2022-08-25T21:21:59.927Z,65.67
2022-08-25T21:27:05.369Z,65.62
2022-08-25T21:32:09.972Z,66.10
2022-08-25T21:37:13.873Z,65.96
2022-08-25T21:42:19.096Z,66.07
2022-08-25T21:47:23.294Z,66.29
2022-08-25T21:52:27.206Z,66.51
2022-08-25T21:57:32.458Z,65.29
2022-08-25T22:02:40.076Z,65.92
2022-08-25T22:13:50.298Z,65.51
2022-08-25T22:18:54.310Z,65.38
2022-08-25T22:23:57.805Z,65.08
2022-08-25T22:29:03.030Z,64.99
2022-08-25T22:34:08.637Z,65.02
2022-08-25T22:39:13.358Z,64.85
2022-08-25T22:44:18.318Z,64.25
2022-08-25T22:49:22.257Z,64.45
2022-08-25T22:54:26.062Z,63.55
2022-08-25T22:59:31.787Z,63.56
2022-08-25T23:04:35.884Z,63.38
2022-08-25T23:09:45.301Z,63.43
2022-08-25T23:14:51.548Z,62.93
2022-08-25T23:19:55.345Z,62.86
2022-08-25T23:24:59.090Z,62.66
2022-08-25T23:30:04.185Z,62.73
2022-08-25T23:35:08.918Z,62.42
2022-08-25T23:40:13.153Z,62.78
2022-08-25T23:45:24.481Z,62.44
2022-08-25T23:50:29.493Z,63.82
2022-08-25T23:55:33.649Z,63.95
